sensor_id;sensor_type;location;lat;lon;timestamp;temperature;humidity
21832;DHT22;11078;49.872;6.188;2022-07-29T00:00:38;19.90;1.00
21832;DHT22;11078;49.872;6.188;2022-07-29T00:03:04;19.80;1.00
21832;DHT22;11078;49.872;6.188;2022-07-29T00:05:30;19.80;1.00
21832;DHT22;11078;49.872;6.188;2022-07-29T00:07:56;19.70;1.00
21832;DHT22;11078;49.872;6.188;2022-07-29T00:10:22;19.70;1.00
21832;DHT22;11078;49.872;6.188;2022-07-29T00:12:48;19.70;1.00
21832;DHT22;11078;49.872;6.188;2022-07-29T00:15:14;19.60;1.00
21832;DHT22;11078;49.872;6.188;2022-07-29T00:17:40;19.60;1.00
21832;DHT22;11078;49.872;6.188;2022-07-29T00:20:06;19.50;1.00
21832;DHT22;11078;49.872;6.188;2022-07-29T00:22:33;19.50;1.00
21832;DHT22;11078;49.872;6.188;2022-07-29T00:25:02;19.50;1.00
21832;DHT22;11078;49.872;6.188;2022-07-29T00:27:28;19.40;1.00
21832;DHT22;11078;49.872;6.188;2022-07-29T00:29:54;19.40;1.00
21832;DHT22;11078;49.872;6.188;2022-07-29T00:32:20;19.30;1.00
21832;DHT22;11078;49.872;6.188;2022-07-29T00:34:46;19.20;1.00
21832;DHT22;11078;49.872;6.188;2022-07-29T00:37:27;19.20;1.00
21832;DHT22;11078;49.872;6.188;2022-07-29T00:39:54;19.10;1.00
21832;DHT22;11078;49.872;6.188;2022-07-29T00:42:20;19.00;1.00
21832;DHT22;11078;49.872;6.188;2022-07-29T00:44:46;19.00;1.10
21832;DHT22;11078;49.872;6.188;2022-07-29T00:47:12;18.90;1.20
21832;DHT22;11078;49.872;6.188;2022-07-29T00:49:40;18.80;1.30
21832;DHT22;11078;49.872;6.188;2022-07-29T00:52:07;18.80;1.50
21832;DHT22;11078;49.872;6.188;2022-07-29T00:54:34;18.70;1.60
21832;DHT22;11078;49.872;6.188;2022-07-29T00:57:01;18.60;1.60
21832;DHT22;11078;49.872;6.188;2022-07-29T00:59:28;18.50;1.70
21832;DHT22;11078;49.872;6.188;2022-07-29T01:01:54;18.40;1.70
21832;DHT22;11078;49.872;6.188;2022-07-29T01:04:21;18.40;1.90
21832;DHT22;11078;49.872;6.188;2022-07-29T01:06:48;18.30;2.10
21832;DHT22;11078;49.872;6.188;2022-07-29T01:09:15;18.20;2.10
21832;DHT22;11078;49.872;6.188;2022-07-29T01:11:43;18.20;2.00
21832;DHT22;11078;49.872;6.188;2022-07-29T01:14:12;18.20;2.10
21832;DHT22;11078;49.872;6.188;2022-07-29T01:16:46;18.10;2.00
21832;DHT22;11078;49.872;6.188;2022-07-29T01:22:12;18.00;3.50
21832;DHT22;11078;49.872;6.188;2022-07-29T01:25:15;18.00;3.20
21832;DHT22;11078;49.872;6.188;2022-07-29T01:27:56;17.80;4.80
21832;DHT22;11078;49.872;6.188;2022-07-29T01:30:26;17.70;3.90
21832;DHT22;11078;49.872;6.188;2022-07-29T01:32:56;17.70;2.50
21832;DHT22;11078;49.872;6.188;2022-07-29T01:35:26;17.60;3.00
21832;DHT22;11078;49.872;6.188;2022-07-29T01:38:09;17.50;3.20
21832;DHT22;11078;49.872;6.188;2022-07-29T01:40:47;17.50;5.40
21832;DHT22;11078;49.872;6.188;2022-07-29T01:43:18;17.40;5.20
21832;DHT22;11078;49.872;6.188;2022-07-29T01:45:53;17.40;3.60
21832;DHT22;11078;49.872;6.188;2022-07-29T01:48:24;17.30;4.00
21832;DHT22;11078;49.872;6.188;2022-07-29T01:50:57;17.20;3.30
21832;DHT22;11078;49.872;6.188;2022-07-29T01:53:31;17.20;3.80
21832;DHT22;11078;49.872;6.188;2022-07-29T01:56:00;17.10;4.50
21832;DHT22;11078;49.872;6.188;2022-07-29T01:58:29;17.10;3.60
21832;DHT22;11078;49.872;6.188;2022-07-29T02:00:58;17.10;3.90
21832;DHT22;11078;49.872;6.188;2022-07-29T02:03:26;17.00;3.70
21832;DHT22;11078;49.872;6.188;2022-07-29T02:05:53;17.00;3.70
21832;DHT22;11078;49.872;6.188;2022-07-29T02:08:21;17.00;3.60
21832;DHT22;11078;49.872;6.188;2022-07-29T02:10:48;16.90;3.60
21832;DHT22;11078;49.872;6.188;2022-07-29T02:13:17;16.90;3.80
21832;DHT22;11078;49.872;6.188;2022-07-29T02:15:44;16.90;3.90
21832;DHT22;11078;49.872;6.188;2022-07-29T02:18:16;16.90;4.00
21832;DHT22;11078;49.872;6.188;2022-07-29T02:20:46;16.80;4.20
21832;DHT22;11078;49.872;6.188;2022-07-29T02:23:19;16.80;4.20
21832;DHT22;11078;49.872;6.188;2022-07-29T02:25:49;16.70;4.30
21832;DHT22;11078;49.872;6.188;2022-07-29T02:28:16;16.60;4.40
21832;DHT22;11078;49.872;6.188;2022-07-29T02:30:43;16.60;4.20
21832;DHT22;11078;49.872;6.188;2022-07-29T02:33:12;16.60;4.30
21832;DHT22;11078;49.872;6.188;2022-07-29T02:35:40;16.60;4.40
21832;DHT22;11078;49.872;6.188;2022-07-29T02:38:08;16.50;4.40
21832;DHT22;11078;49.872;6.188;2022-07-29T02:40:50;16.50;5.30
21832;DHT22;11078;49.872;6.188;2022-07-29T02:43:19;16.50;4.60
21832;DHT22;11078;49.872;6.188;2022-07-29T02:45:47;16.50;4.90
21832;DHT22;11078;49.872;6.188;2022-07-29T02:48:20;16.50;5.00
21832;DHT22;11078;49.872;6.188;2022-07-29T02:50:51;16.50;5.30
21832;DHT22;11078;49.872;6.188;2022-07-29T02:53:23;16.50;5.50
21832;DHT22;11078;49.872;6.188;2022-07-29T02:56:04;16.50;5.30
21832;DHT22;11078;49.872;6.188;2022-07-29T02:58:37;16.50;7.20
21832;DHT22;11078;49.872;6.188;2022-07-29T03:01:08;16.50;5.50
21832;DHT22;11078;49.872;6.188;2022-07-29T03:03:37;16.60;5.10
21832;DHT22;11078;49.872;6.188;2022-07-29T03:06:04;16.60;5.20
21832;DHT22;11078;49.872;6.188;2022-07-29T03:08:32;16.60;5.20
21832;DHT22;11078;49.872;6.188;2022-07-29T03:11:01;16.50;5.20
21832;DHT22;11078;49.872;6.188;2022-07-29T03:13:28;16.60;5.30
21832;DHT22;11078;49.872;6.188;2022-07-29T03:15:55;16.50;5.30
21832;DHT22;11078;49.872;6.188;2022-07-29T03:18:23;16.50;5.30
21832;DHT22;11078;49.872;6.188;2022-07-29T03:20:50;16.60;5.30
21832;DHT22;11078;49.872;6.188;2022-07-29T03:23:20;16.60;5.30
21832;DHT22;11078;49.872;6.188;2022-07-29T03:25:49;16.60;6.20
21832;DHT22;11078;49.872;6.188;2022-07-29T03:28:15;16.70;5.50
21832;DHT22;11078;49.872;6.188;2022-07-29T03:30:41;16.70;5.40
21832;DHT22;11078;49.872;6.188;2022-07-29T03:33:07;16.70;5.50
21832;DHT22;11078;49.872;6.188;2022-07-29T03:35:33;16.70;5.50
21832;DHT22;11078;49.872;6.188;2022-07-29T03:37:59;16.70;5.40
21832;DHT22;11078;49.872;6.188;2022-07-29T03:40:31;16.70;5.50
21832;DHT22;11078;49.872;6.188;2022-07-29T03:43:00;16.80;5.80
21832;DHT22;11078;49.872;6.188;2022-07-29T03:45:29;16.80;5.70
21832;DHT22;11078;49.872;6.188;2022-07-29T03:48:01;16.70;5.80
21832;DHT22;11078;49.872;6.188;2022-07-29T03:50:29;16.70;6.20
21832;DHT22;11078;49.872;6.188;2022-07-29T03:52:56;16.70;5.80
21832;DHT22;11078;49.872;6.188;2022-07-29T03:55:23;16.70;5.70
21832;DHT22;11078;49.872;6.188;2022-07-29T03:57:50;16.60;5.70
21832;DHT22;11078;49.872;6.188;2022-07-29T04:00:16;16.60;5.80
21832;DHT22;11078;49.872;6.188;2022-07-29T04:02:43;16.60;5.80
21832;DHT22;11078;49.872;6.188;2022-07-29T04:05:14;16.50;6.00
21832;DHT22;11078;49.872;6.188;2022-07-29T04:07:43;16.50;5.90
21832;DHT22;11078;49.872;6.188;2022-07-29T04:10:09;16.50;6.00
21832;DHT22;11078;49.872;6.188;2022-07-29T04:12:35;16.40;6.10
21832;DHT22;11078;49.872;6.188;2022-07-29T04:15:03;16.40;6.00
21832;DHT22;11078;49.872;6.188;2022-07-29T04:17:29;16.40;6.10
21832;DHT22;11078;49.872;6.188;2022-07-29T04:19:55;16.30;6.10
21832;DHT22;11078;49.872;6.188;2022-07-29T04:22:21;16.30;6.20
21832;DHT22;11078;49.872;6.188;2022-07-29T04:24:47;16.30;6.40
21832;DHT22;11078;49.872;6.188;2022-07-29T04:27:13;16.20;6.40
21832;DHT22;11078;49.872;6.188;2022-07-29T04:29:39;16.20;6.50
21832;DHT22;11078;49.872;6.188;2022-07-29T04:32:05;16.20;6.60
21832;DHT22;11078;49.872;6.188;2022-07-29T04:34:31;16.20;6.60
21832;DHT22;11078;49.872;6.188;2022-07-29T04:37:16;16.20;6.70
21832;DHT22;11078;49.872;6.188;2022-07-29T04:39:42;16.20;6.70
21832;DHT22;11078;49.872;6.188;2022-07-29T04:42:08;16.20;6.70
21832;DHT22;11078;49.872;6.188;2022-07-29T04:44:34;16.10;6.80
21832;DHT22;11078;49.872;6.188;2022-07-29T04:47:00;16.10;6.70
21832;DHT22;11078;49.872;6.188;2022-07-29T04:49:25;16.10;6.70
21832;DHT22;11078;49.872;6.188;2022-07-29T04:51:51;16.10;6.80
21832;DHT22;11078;49.872;6.188;2022-07-29T04:54:17;16.10;6.90
21832;DHT22;11078;49.872;6.188;2022-07-29T04:56:43;16.10;6.90
21832;DHT22;11078;49.872;6.188;2022-07-29T04:59:09;16.10;6.90
21832;DHT22;11078;49.872;6.188;2022-07-29T05:01:35;16.10;6.90
21832;DHT22;11078;49.872;6.188;2022-07-29T05:04:01;16.20;7.00
21832;DHT22;11078;49.872;6.188;2022-07-29T05:06:27;16.20;7.00
21832;DHT22;11078;49.872;6.188;2022-07-29T05:08:53;16.20;7.00
21832;DHT22;11078;49.872;6.188;2022-07-29T05:11:20;16.20;7.00
21832;DHT22;11078;49.872;6.188;2022-07-29T05:13:46;16.20;7.10
21832;DHT22;11078;49.872;6.188;2022-07-29T05:16:12;16.20;7.10
21832;DHT22;11078;49.872;6.188;2022-07-29T05:18:38;16.20;7.10
21832;DHT22;11078;49.872;6.188;2022-07-29T05:21:04;16.20;7.20
21832;DHT22;11078;49.872;6.188;2022-07-29T05:23:30;16.30;7.20
21832;DHT22;11078;49.872;6.188;2022-07-29T05:25:56;16.40;7.10
21832;DHT22;11078;49.872;6.188;2022-07-29T05:28:22;16.70;6.90
21832;DHT22;11078;49.872;6.188;2022-07-29T05:30:48;17.20;6.10
21832;DHT22;11078;49.872;6.188;2022-07-29T05:33:14;18.00;5.40
21832;DHT22;11078;49.872;6.188;2022-07-29T05:35:41;18.70;4.30
21832;DHT22;11078;49.872;6.188;2022-07-29T05:38:07;19.40;3.20
21832;DHT22;11078;49.872;6.188;2022-07-29T05:40:32;20.10;2.90
21832;DHT22;11078;49.872;6.188;2022-07-29T05:42:59;20.70;1.60
21832;DHT22;11078;49.872;6.188;2022-07-29T05:45:25;21.10;1.00
21832;DHT22;11078;49.872;6.188;2022-07-29T05:47:51;21.70;1.00
21832;DHT22;11078;49.872;6.188;2022-07-29T05:50:17;22.20;1.00
21832;DHT22;11078;49.872;6.188;2022-07-29T05:52:46;22.70;1.00
21832;DHT22;11078;49.872;6.188;2022-07-29T05:55:12;23.20;1.00
21832;DHT22;11078;49.872;6.188;2022-07-29T05:57:38;23.50;1.00
21832;DHT22;11078;49.872;6.188;2022-07-29T06:00:05;23.90;1.00
21832;DHT22;11078;49.872;6.188;2022-07-29T06:02:31;24.40;1.00
21832;DHT22;11078;49.872;6.188;2022-07-29T06:04:57;24.80;1.00
21832;DHT22;11078;49.872;6.188;2022-07-29T06:07:23;25.30;1.00
21832;DHT22;11078;49.872;6.188;2022-07-29T06:09:49;25.70;1.00
21832;DHT22;11078;49.872;6.188;2022-07-29T06:12:15;26.20;1.00
21832;DHT22;11078;49.872;6.188;2022-07-29T06:14:41;26.40;1.00
21832;DHT22;11078;49.872;6.188;2022-07-29T06:17:07;26.70;1.00
21832;DHT22;11078;49.872;6.188;2022-07-29T06:19:34;26.90;1.00
21832;DHT22;11078;49.872;6.188;2022-07-29T06:22:06;27.00;1.00
21832;DHT22;11078;49.872;6.188;2022-07-29T06:24:35;27.30;1.00
21832;DHT22;11078;49.872;6.188;2022-07-29T06:27:03;27.60;1.00
21832;DHT22;11078;49.872;6.188;2022-07-29T06:29:29;28.00;1.00
21832;DHT22;11078;49.872;6.188;2022-07-29T06:31:56;28.30;1.00
21832;DHT22;11078;49.872;6.188;2022-07-29T06:34:22;28.60;1.00
21832;DHT22;11078;49.872;6.188;2022-07-29T06:36:48;28.80;1.00
21832;DHT22;11078;49.872;6.188;2022-07-29T06:39:15;28.90;1.00
21832;DHT22;11078;49.872;6.188;2022-07-29T06:41:41;29.10;1.00
21832;DHT22;11078;49.872;6.188;2022-07-29T06:44:07;29.20;1.00
21832;DHT22;11078;49.872;6.188;2022-07-29T06:46:33;29.20;1.00
21832;DHT22;11078;49.872;6.188;2022-07-29T06:49:00;29.50;1.00
21832;DHT22;11078;49.872;6.188;2022-07-29T06:51:27;29.60;1.00
21832;DHT22;11078;49.872;6.188;2022-07-29T06:53:53;29.60;1.00
21832;DHT22;11078;49.872;6.188;2022-07-29T06:56:19;29.70;1.00
21832;DHT22;11078;49.872;6.188;2022-07-29T06:58:45;29.90;1.00
21832;DHT22;11078;49.872;6.188;2022-07-29T07:01:12;30.10;1.00
21832;DHT22;11078;49.872;6.188;2022-07-29T07:03:38;30.30;1.00
21832;DHT22;11078;49.872;6.188;2022-07-29T07:06:04;30.40;1.00
21832;DHT22;11078;49.872;6.188;2022-07-29T07:08:30;30.50;1.00
21832;DHT22;11078;49.872;6.188;2022-07-29T07:10:56;30.60;1.00
21832;DHT22;11078;49.872;6.188;2022-07-29T07:13:22;30.80;1.00
21832;DHT22;11078;49.872;6.188;2022-07-29T07:15:49;30.90;1.00
21832;DHT22;11078;49.872;6.188;2022-07-29T07:18:16;31.10;1.00
21832;DHT22;11078;49.872;6.188;2022-07-29T07:20:43;31.30;1.00
21832;DHT22;11078;49.872;6.188;2022-07-29T07:23:10;31.40;1.00
21832;DHT22;11078;49.872;6.188;2022-07-29T07:25:36;31.60;1.00
21832;DHT22;11078;49.872;6.188;2022-07-29T07:28:03;31.70;1.00
21832;DHT22;11078;49.872;6.188;2022-07-29T07:30:29;31.90;1.00
21832;DHT22;11078;49.872;6.188;2022-07-29T07:32:55;32.00;1.00
21832;DHT22;11078;49.872;6.188;2022-07-29T07:35:21;31.70;1.00
21832;DHT22;11078;49.872;6.188;2022-07-29T07:37:59;31.50;1.00
21832;DHT22;11078;49.872;6.188;2022-07-29T07:40:25;31.30;1.00
21832;DHT22;11078;49.872;6.188;2022-07-29T07:42:51;31.40;1.00
21832;DHT22;11078;49.872;6.188;2022-07-29T07:45:17;31.50;1.00
21832;DHT22;11078;49.872;6.188;2022-07-29T07:47:43;31.60;1.00
21832;DHT22;11078;49.872;6.188;2022-07-29T07:50:10;31.90;1.00
21832;DHT22;11078;49.872;6.188;2022-07-29T07:52:53;31.80;1.00
21832;DHT22;11078;49.872;6.188;2022-07-29T07:55:20;32.00;1.00
21832;DHT22;11078;49.872;6.188;2022-07-29T07:57:47;31.80;1.00
21832;DHT22;11078;49.872;6.188;2022-07-29T08:00:15;31.80;1.00
21832;DHT22;11078;49.872;6.188;2022-07-29T08:02:41;31.80;1.00
21832;DHT22;11078;49.872;6.188;2022-07-29T08:05:09;31.60;1.00
21832;DHT22;11078;49.872;6.188;2022-07-29T08:07:36;31.50;1.00
21832;DHT22;11078;49.872;6.188;2022-07-29T08:10:03;31.20;1.00
21832;DHT22;11078;49.872;6.188;2022-07-29T08:12:30;31.10;1.00
21832;DHT22;11078;49.872;6.188;2022-07-29T08:14:56;30.70;1.00
21832;DHT22;11078;49.872;6.188;2022-07-29T08:17:24;30.70;1.00
21832;DHT22;11078;49.872;6.188;2022-07-29T08:19:50;30.40;1.00
21832;DHT22;11078;49.872;6.188;2022-07-29T08:22:17;30.40;1.00
21832;DHT22;11078;49.872;6.188;2022-07-29T08:24:44;30.30;1.00
21832;DHT22;11078;49.872;6.188;2022-07-29T08:27:18;30.30;1.00
21832;DHT22;11078;49.872;6.188;2022-07-29T08:29:44;30.40;1.00
21832;DHT22;11078;49.872;6.188;2022-07-29T08:32:11;30.70;1.00
21832;DHT22;11078;49.872;6.188;2022-07-29T08:34:37;30.90;1.00
21832;DHT22;11078;49.872;6.188;2022-07-29T08:37:03;31.20;1.00
21832;DHT22;11078;49.872;6.188;2022-07-29T08:39:29;31.60;1.00
21832;DHT22;11078;49.872;6.188;2022-07-29T08:41:56;31.60;1.00
21832;DHT22;11078;49.872;6.188;2022-07-29T08:44:22;31.60;1.00
21832;DHT22;11078;49.872;6.188;2022-07-29T08:46:49;31.60;1.00
21832;DHT22;11078;49.872;6.188;2022-07-29T08:49:16;31.70;1.00
21832;DHT22;11078;49.872;6.188;2022-07-29T08:51:43;31.60;1.00
21832;DHT22;11078;49.872;6.188;2022-07-29T08:54:09;31.30;1.00
21832;DHT22;11078;49.872;6.188;2022-07-29T08:56:37;31.30;1.00
21832;DHT22;11078;49.872;6.188;2022-07-29T08:59:05;31.40;1.00
21832;DHT22;11078;49.872;6.188;2022-07-29T09:01:34;31.50;1.00
21832;DHT22;11078;49.872;6.188;2022-07-29T09:04:04;31.60;1.00
21832;DHT22;11078;49.872;6.188;2022-07-29T09:06:34;31.70;1.00
21832;DHT22;11078;49.872;6.188;2022-07-29T09:09:00;31.80;1.00
21832;DHT22;11078;49.872;6.188;2022-07-29T09:11:27;32.10;1.00
21832;DHT22;11078;49.872;6.188;2022-07-29T09:13:54;32.30;1.00
21832;DHT22;11078;49.872;6.188;2022-07-29T09:16:20;32.30;1.00
21832;DHT22;11078;49.872;6.188;2022-07-29T09:18:46;32.50;1.00
21832;DHT22;11078;49.872;6.188;2022-07-29T09:21:15;32.50;1.00
21832;DHT22;11078;49.872;6.188;2022-07-29T09:24:13;32.60;1.00
21832;DHT22;11078;49.872;6.188;2022-07-29T09:26:42;32.90;1.00
21832;DHT22;11078;49.872;6.188;2022-07-29T09:29:12;33.10;1.00
21832;DHT22;11078;49.872;6.188;2022-07-29T09:31:42;33.30;1.00
21832;DHT22;11078;49.872;6.188;2022-07-29T09:34:09;33.50;1.00
21832;DHT22;11078;49.872;6.188;2022-07-29T09:36:46;33.70;1.00
21832;DHT22;11078;49.872;6.188;2022-07-29T09:39:13;33.70;1.00
21832;DHT22;11078;49.872;6.188;2022-07-29T09:41:50;33.40;1.00
21832;DHT22;11078;49.872;6.188;2022-07-29T09:44:21;33.40;1.00
21832;DHT22;11078;49.872;6.188;2022-07-29T09:47:04;33.20;1.00
21832;DHT22;11078;49.872;6.188;2022-07-29T09:49:34;33.40;1.00
21832;DHT22;11078;49.872;6.188;2022-07-29T09:52:05;33.60;1.00
21832;DHT22;11078;49.872;6.188;2022-07-29T09:54:32;33.80;1.00
21832;DHT22;11078;49.872;6.188;2022-07-29T09:57:08;33.80;1.00
21832;DHT22;11078;49.872;6.188;2022-07-29T09:59:38;33.80;1.00
21832;DHT22;11078;49.872;6.188;2022-07-29T10:02:12;33.60;1.00
21832;DHT22;11078;49.872;6.188;2022-07-29T10:04:40;33.30;1.00
21832;DHT22;11078;49.872;6.188;2022-07-29T10:07:07;33.00;1.00
21832;DHT22;11078;49.872;6.188;2022-07-29T10:09:34;32.80;1.00
21832;DHT22;11078;49.872;6.188;2022-07-29T10:12:10;32.80;1.00
21832;DHT22;11078;49.872;6.188;2022-07-29T10:14:39;32.90;1.00
21832;DHT22;11078;49.872;6.188;2022-07-29T10:17:06;32.90;1.00
21832;DHT22;11078;49.872;6.188;2022-07-29T10:19:34;32.80;1.00
21832;DHT22;11078;49.872;6.188;2022-07-29T10:22:07;33.00;1.00
21832;DHT22;11078;49.872;6.188;2022-07-29T10:24:34;33.20;1.00
21832;DHT22;11078;49.872;6.188;2022-07-29T10:27:03;33.40;1.00
21832;DHT22;11078;49.872;6.188;2022-07-29T10:29:29;33.50;1.00
21832;DHT22;11078;49.872;6.188;2022-07-29T10:32:20;33.30;1.00
21832;DHT22;11078;49.872;6.188;2022-07-29T10:38:13;33.80;1.00
21832;DHT22;11078;49.872;6.188;2022-07-29T10:41:06;33.90;1.00
21832;DHT22;11078;49.872;6.188;2022-07-29T10:43:55;34.00;1.00
21832;DHT22;11078;49.872;6.188;2022-07-29T10:46:22;34.30;1.00
21832;DHT22;11078;49.872;6.188;2022-07-29T10:49:05;34.20;1.00
21832;DHT22;11078;49.872;6.188;2022-07-29T10:54:41;34.00;1.00
21832;DHT22;11078;49.872;6.188;2022-07-29T10:57:18;33.70;1.00
21832;DHT22;11078;49.872;6.188;2022-07-29T10:59:48;33.60;1.00
21832;DHT22;11078;49.872;6.188;2022-07-29T11:02:43;33.50;1.00
21832;DHT22;11078;49.872;6.188;2022-07-29T11:05:14;33.80;1.00
21832;DHT22;11078;49.872;6.188;2022-07-29T11:10:40;34.00;1.00
21832;DHT22;11078;49.872;6.188;2022-07-29T11:13:06;34.00;1.00
21832;DHT22;11078;49.872;6.188;2022-07-29T11:15:55;34.00;1.00
21832;DHT22;11078;49.872;6.188;2022-07-29T11:18:21;33.90;1.00
21832;DHT22;11078;49.872;6.188;2022-07-29T11:20:49;33.80;1.00
21832;DHT22;11078;49.872;6.188;2022-07-29T11:23:32;33.60;1.00
21832;DHT22;11078;49.872;6.188;2022-07-29T11:26:19;33.50;1.00
21832;DHT22;11078;49.872;6.188;2022-07-29T11:31:51;33.50;1.00
21832;DHT22;11078;49.872;6.188;2022-07-29T11:34:27;33.40;1.00
21832;DHT22;11078;49.872;6.188;2022-07-29T11:37:14;33.30;1.00
21832;DHT22;11078;49.872;6.188;2022-07-29T11:39:47;33.10;1.00
21832;DHT22;11078;49.872;6.188;2022-07-29T11:42:37;33.10;1.00
21832;DHT22;11078;49.872;6.188;2022-07-29T11:45:13;32.90;1.00
21832;DHT22;11078;49.872;6.188;2022-07-29T11:47:47;32.80;1.00
21832;DHT22;11078;49.872;6.188;2022-07-29T11:50:26;32.80;1.00
21832;DHT22;11078;49.872;6.188;2022-07-29T11:52:53;32.90;1.00
21832;DHT22;11078;49.872;6.188;2022-07-29T11:55:22;32.90;1.00
21832;DHT22;11078;49.872;6.188;2022-07-29T11:57:51;33.00;1.00
21832;DHT22;11078;49.872;6.188;2022-07-29T12:00:25;33.10;1.00
21832;DHT22;11078;49.872;6.188;2022-07-29T12:02:52;33.30;1.00
21832;DHT22;11078;49.872;6.188;2022-07-29T12:05:19;33.30;1.00
21832;DHT22;11078;49.872;6.188;2022-07-29T12:07:47;33.50;1.00
21832;DHT22;11078;49.872;6.188;2022-07-29T12:10:14;33.80;1.00
21832;DHT22;11078;49.872;6.188;2022-07-29T12:12:41;34.00;1.00
21832;DHT22;11078;49.872;6.188;2022-07-29T12:15:13;34.00;1.00
21832;DHT22;11078;49.872;6.188;2022-07-29T12:17:40;33.90;1.00
21832;DHT22;11078;49.872;6.188;2022-07-29T12:20:06;33.60;1.00
21832;DHT22;11078;49.872;6.188;2022-07-29T12:22:34;33.40;1.00
21832;DHT22;11078;49.872;6.188;2022-07-29T12:25:06;33.00;1.00
21832;DHT22;11078;49.872;6.188;2022-07-29T12:27:33;32.90;1.00
21832;DHT22;11078;49.872;6.188;2022-07-29T12:30:00;32.80;1.00
21832;DHT22;11078;49.872;6.188;2022-07-29T12:32:38;32.60;1.00
21832;DHT22;11078;49.872;6.188;2022-07-29T12:35:14;32.50;1.00
21832;DHT22;11078;49.872;6.188;2022-07-29T12:37:41;32.30;1.00
21832;DHT22;11078;49.872;6.188;2022-07-29T12:40:09;32.40;1.00
21832;DHT22;11078;49.872;6.188;2022-07-29T12:42:36;32.60;1.00
21832;DHT22;11078;49.872;6.188;2022-07-29T12:45:03;32.90;1.00
21832;DHT22;11078;49.872;6.188;2022-07-29T12:47:30;33.00;1.00
21832;DHT22;11078;49.872;6.188;2022-07-29T12:50:12;32.90;1.00
21832;DHT22;11078;49.872;6.188;2022-07-29T12:52:43;32.90;1.00
21832;DHT22;11078;49.872;6.188;2022-07-29T12:55:10;33.00;1.00
21832;DHT22;11078;49.872;6.188;2022-07-29T12:57:51;33.00;1.00
21832;DHT22;11078;49.872;6.188;2022-07-29T13:00:23;33.00;1.00
21832;DHT22;11078;49.872;6.188;2022-07-29T13:02:58;32.90;1.00
21832;DHT22;11078;49.872;6.188;2022-07-29T13:05:38;33.10;1.00
21832;DHT22;11078;49.872;6.188;2022-07-29T13:08:14;33.40;1.00
21832;DHT22;11078;49.872;6.188;2022-07-29T13:10:41;33.60;1.00
21832;DHT22;11078;49.872;6.188;2022-07-29T13:13:13;33.50;1.00
21832;DHT22;11078;49.872;6.188;2022-07-29T13:15:42;33.50;1.00
21832;DHT22;11078;49.872;6.188;2022-07-29T13:18:32;33.40;1.00
21832;DHT22;11078;49.872;6.188;2022-07-29T13:21:11;33.10;1.00
21832;DHT22;11078;49.872;6.188;2022-07-29T13:23:38;32.90;1.00
21832;DHT22;11078;49.872;6.188;2022-07-29T13:26:07;32.70;1.00
21832;DHT22;11078;49.872;6.188;2022-07-29T13:28:33;32.50;1.00
21832;DHT22;11078;49.872;6.188;2022-07-29T13:31:00;32.40;1.00
21832;DHT22;11078;49.872;6.188;2022-07-29T13:33:26;32.20;1.00
21832;DHT22;11078;49.872;6.188;2022-07-29T13:35:52;32.10;1.00
21832;DHT22;11078;49.872;6.188;2022-07-29T13:38:18;31.90;1.00
21832;DHT22;11078;49.872;6.188;2022-07-29T13:40:44;31.80;1.00
21832;DHT22;11078;49.872;6.188;2022-07-29T13:43:11;31.70;1.00
21832;DHT22;11078;49.872;6.188;2022-07-29T13:45:37;31.60;1.00
21832;DHT22;11078;49.872;6.188;2022-07-29T13:48:06;31.40;1.00
21832;DHT22;11078;49.872;6.188;2022-07-29T13:50:32;31.40;1.00
21832;DHT22;11078;49.872;6.188;2022-07-29T13:52:59;31.20;1.00
21832;DHT22;11078;49.872;6.188;2022-07-29T13:55:25;31.10;1.00
21832;DHT22;11078;49.872;6.188;2022-07-29T13:57:51;31.20;1.00
21832;DHT22;11078;49.872;6.188;2022-07-29T14:00:17;31.20;1.00
21832;DHT22;11078;49.872;6.188;2022-07-29T14:02:44;31.10;1.00
21832;DHT22;11078;49.872;6.188;2022-07-29T14:05:10;31.10;1.00
21832;DHT22;11078;49.872;6.188;2022-07-29T14:07:37;31.10;1.00
21832;DHT22;11078;49.872;6.188;2022-07-29T14:10:05;31.10;1.00
21832;DHT22;11078;49.872;6.188;2022-07-29T14:12:31;31.40;1.00
21832;DHT22;11078;49.872;6.188;2022-07-29T14:14:57;31.60;1.00
21832;DHT22;11078;49.872;6.188;2022-07-29T14:17:23;32.00;1.00
21832;DHT22;11078;49.872;6.188;2022-07-29T14:19:49;32.30;1.00
21832;DHT22;11078;49.872;6.188;2022-07-29T14:22:18;32.60;1.00
21832;DHT22;11078;49.872;6.188;2022-07-29T14:24:45;32.90;1.00
21832;DHT22;11078;49.872;6.188;2022-07-29T14:27:11;33.10;1.00
21832;DHT22;11078;49.872;6.188;2022-07-29T14:29:37;33.30;1.00
21832;DHT22;11078;49.872;6.188;2022-07-29T14:32:06;33.40;1.00
21832;DHT22;11078;49.872;6.188;2022-07-29T14:34:33;33.50;1.00
21832;DHT22;11078;49.872;6.188;2022-07-29T14:36:59;33.50;1.00
21832;DHT22;11078;49.872;6.188;2022-07-29T14:39:25;33.30;1.00
21832;DHT22;11078;49.872;6.188;2022-07-29T14:41:51;33.20;1.00
21832;DHT22;11078;49.872;6.188;2022-07-29T14:44:18;33.10;1.00
21832;DHT22;11078;49.872;6.188;2022-07-29T14:46:44;33.10;1.00
21832;DHT22;11078;49.872;6.188;2022-07-29T14:49:10;33.00;1.00
21832;DHT22;11078;49.872;6.188;2022-07-29T14:51:37;32.90;1.00
21832;DHT22;11078;49.872;6.188;2022-07-29T14:54:03;32.90;1.00
21832;DHT22;11078;49.872;6.188;2022-07-29T14:56:29;33.00;1.00
21832;DHT22;11078;49.872;6.188;2022-07-29T14:58:56;33.10;1.00
21832;DHT22;11078;49.872;6.188;2022-07-29T15:01:23;33.20;1.00
21832;DHT22;11078;49.872;6.188;2022-07-29T15:03:51;33.20;1.00
21832;DHT22;11078;49.872;6.188;2022-07-29T15:06:18;33.20;1.00
21832;DHT22;11078;49.872;6.188;2022-07-29T15:08:44;33.10;1.00
21832;DHT22;11078;49.872;6.188;2022-07-29T15:11:10;33.00;1.00
21832;DHT22;11078;49.872;6.188;2022-07-29T15:13:37;32.80;1.00
21832;DHT22;11078;49.872;6.188;2022-07-29T15:16:05;32.80;1.00
21832;DHT22;11078;49.872;6.188;2022-07-29T15:18:31;32.60;1.00
21832;DHT22;11078;49.872;6.188;2022-07-29T15:20:57;32.60;1.00
21832;DHT22;11078;49.872;6.188;2022-07-29T15:23:28;32.60;1.00
21832;DHT22;11078;49.872;6.188;2022-07-29T15:25:54;32.50;1.00
21832;DHT22;11078;49.872;6.188;2022-07-29T15:28:21;32.50;1.00
21832;DHT22;11078;49.872;6.188;2022-07-29T15:30:56;32.50;1.00
21832;DHT22;11078;49.872;6.188;2022-07-29T15:33:22;32.40;1.00
21832;DHT22;11078;49.872;6.188;2022-07-29T15:35:49;32.40;1.00
21832;DHT22;11078;49.872;6.188;2022-07-29T15:38:17;32.50;1.00
21832;DHT22;11078;49.872;6.188;2022-07-29T15:40:43;32.40;1.00
21832;DHT22;11078;49.872;6.188;2022-07-29T15:43:12;32.50;1.00
21832;DHT22;11078;49.872;6.188;2022-07-29T15:45:41;32.50;1.00
21832;DHT22;11078;49.872;6.188;2022-07-29T15:48:28;32.50;1.00
21832;DHT22;11078;49.872;6.188;2022-07-29T15:50:55;32.50;1.00
21832;DHT22;11078;49.872;6.188;2022-07-29T15:53:23;32.40;1.00
21832;DHT22;11078;49.872;6.188;2022-07-29T15:55:52;32.20;1.00
21832;DHT22;11078;49.872;6.188;2022-07-29T15:58:21;32.10;1.00
21832;DHT22;11078;49.872;6.188;2022-07-29T16:00:47;32.10;1.00
21832;DHT22;11078;49.872;6.188;2022-07-29T16:03:15;32.10;1.00
21832;DHT22;11078;49.872;6.188;2022-07-29T16:05:41;32.00;1.00
21832;DHT22;11078;49.872;6.188;2022-07-29T16:08:08;32.00;1.00
21832;DHT22;11078;49.872;6.188;2022-07-29T16:10:41;31.90;1.00